Time;durP1;ratioP1;P1;durP2;ratioP2;P2;SDS_P1;SDS_P2;PMS_P1;PMS_P2;Temp;Humidity;BMP_temperature;BMP_pressure;BME280_temperature;BME280_humidity;BME280_pressure;Samples;Min_cycle;Max_cycle;Signal;HPM_P1;HPM_P2
2024/04/22 00:00:56;;;;;;;;;;;;;;;22.86;47.30;94246.09;5213110;27;9107;-60
2024/04/22 00:03:22;;;;;;;;;;;;;;;22.86;47.12;94242.63;5202838;27;9860;-60
2024/04/22 00:06:01;;;;;;;;;;;;;;;22.85;47.33;94232.88;5205846;27;7317;-61
2024/04/22 00:08:52;;;;;;;;;;;;;;;22.85;47.19;94236.38;5233912;26;9049;-61
2024/04/22 00:11:18;;;;;;;;;;;;;;;22.85;47.34;94233.66;5307860;26;9022;-61
2024/04/22 00:13:47;;;;;;;;;;;;;;;22.84;47.23;94232.13;5341851;26;9070;-60
2024/04/22 00:16:24;;;;;;;;;;;;;;;22.86;47.73;94229.66;5340586;26;8699;-60
2024/04/22 00:19:09;;;;;;;;;;;;;;;22.88;46.96;94232.63;5331402;26;9064;-60
2024/04/22 00:22:08;;;;;;;;;;;;;;;22.88;47.55;94224.41;5340369;26;7326;-61
2024/04/22 00:24:36;;;;;;;;;;;;;;;22.86;46.89;94220.69;5211013;27;9465;-62
2024/04/22 00:27:04;;;;;;;;;;;;;;;22.86;47.39;94221.41;5216245;27;9727;-62
2024/04/22 00:29:30;;;;;;;;;;;;;;;22.87;47.22;94225.66;5270171;27;8182;-62
2024/04/22 00:32:10;;;;;;;;;;;;;;;22.87;47.17;94220.19;5306268;27;7019;-62
2024/04/22 00:35:07;;;;;;;;;;;;;;;22.80;46.97;94197.97;5280967;27;8977;-62
2024/04/22 00:37:42;;;;;;;;;;;;;;;22.88;47.22;94218.19;5271374;27;8503;-62
2024/04/22 00:40:13;;;;;;;;;;;;;;;22.86;47.21;94210.44;5296420;27;9131;-62
2024/04/22 00:42:43;;;;;;;;;;;;;;;22.86;46.69;94207.69;5304293;26;9179;-62
2024/04/22 00:45:30;;;;;;;;;;;;;;;22.87;47.40;94209.22;5293093;27;9220;-62
2024/04/22 00:48:27;;;;;;;;;;;;;;;22.86;47.16;94199.47;5257690;27;7037;-62
2024/04/22 00:51:26;;;;;;;;;;;;;;;22.88;47.46;94207.22;5243242;27;9807;-62
2024/04/22 00:53:53;;;;;;;;;;;;;;;22.88;47.13;94202.47;5272067;27;8701;-62
2024/04/22 00:56:20;;;;;;;;;;;;;;;22.89;47.25;94201.22;5242082;27;9243;-62
2024/04/22 00:58:49;;;;;;;;;;;;;;;22.88;47.23;94188.03;5271057;27;9003;-62
2024/04/22 01:01:17;;;;;;;;;;;;;;;22.83;46.79;94186.78;5259208;27;8589;-62
2024/04/22 01:03:46;;;;;;;;;;;;;;;22.88;46.47;94196.97;5215051;27;7243;-62
2024/04/22 01:06:20;;;;;;;;;;;;;;;22.87;47.33;94192.75;5239000;27;9032;-62
2024/04/22 01:08:51;;;;;;;;;;;;;;;22.84;46.88;94188.25;5210663;27;9084;-62
2024/04/22 01:11:22;;;;;;;;;;;;;;;22.87;46.91;94184.53;5258764;27;9610;-62
2024/04/22 01:14:07;;;;;;;;;;;;;;;22.88;46.64;94188.03;5285720;26;7039;-62
2024/04/22 01:16:34;;;;;;;;;;;;;;;22.85;46.87;94184.28;5320650;26;7628;-62
2024/04/22 01:19:35;;;;;;;;;;;;;;;22.87;46.99;94181.03;5278504;27;9142;-62
2024/04/22 01:22:12;;;;;;;;;;;;;;;22.86;46.71;94174.81;5271393;27;9001;-62
2024/04/22 01:25:31;;;;;;;;;;;;;;;22.85;47.07;94172.56;5278632;26;9852;-62
2024/04/22 01:28:30;;;;;;;;;;;;;;;22.86;46.74;94174.06;5420084;26;9171;-62
2024/04/22 01:31:16;;;;;;;;;;;;;;;22.86;46.59;94180.28;5339900;26;9740;-62
2024/04/22 01:33:52;;;;;;;;;;;;;;;22.87;46.82;94170.06;5351457;26;8686;-59
2024/04/22 01:36:41;;;;;;;;;;;;;;;22.86;46.49;94172.06;5345858;26;9512;-59
2024/04/22 01:39:37;;;;;;;;;;;;;;;22.86;46.28;94166.56;5345780;26;7328;-59
2024/04/22 01:42:08;;;;;;;;;;;;;;;22.79;47.02;94153.38;5348174;26;9427;-59
2024/04/22 01:44:52;;;;;;;;;;;;;;;22.84;46.68;94163.59;5343960;26;9445;-59
2024/04/22 01:47:19;;;;;;;;;;;;;;;22.84;47.00;94169.06;5345357;26;7039;-59
2024/04/22 01:49:46;;;;;;;;;;;;;;;22.84;46.56;94155.34;5372650;26;9547;-59
2024/04/22 01:52:18;;;;;;;;;;;;;;;22.82;46.68;94149.63;5338130;26;9502;-58
2024/04/22 01:54:44;;;;;;;;;;;;;;;22.83;46.57;94142.91;5360389;26;9573;-59
2024/04/22 01:57:11;;;;;;;;;;;;;;;22.77;46.80;94147.63;5339750;26;8987;-59
2024/04/22 01:59:37;;;;;;;;;;;;;;;22.84;47.04;94146.38;5379579;26;8958;-59
2024/04/22 02:02:18;;;;;;;;;;;;;;;22.84;46.73;94144.38;5345291;26;9053;-58
2024/04/22 02:05:13;;;;;;;;;;;;;;;22.82;46.98;94135.91;5373249;26;8817;-58
2024/04/22 02:08:26;;;;;;;;;;;;;;;22.81;46.72;94139.16;5311708;26;8987;-58
2024/04/22 02:11:07;;;;;;;;;;;;;;;22.81;46.62;94139.16;5267991;27;9933;-59
2024/04/22 02:13:34;;;;;;;;;;;;;;;22.80;46.23;94135.66;5283213;27;9622;-59
2024/04/22 02:16:02;;;;;;;;;;;;;;;22.80;46.97;94141.16;5266340;27;9359;-59
2024/04/22 02:18:30;;;;;;;;;;;;;;;22.81;46.72;94134.44;5253653;27;9108;-59
2024/04/22 02:20:57;;;;;;;;;;;;;;;22.81;46.78;94142.66;5286485;27;9056;-58
2024/04/22 02:23:54;;;;;;;;;;;;;;;22.81;46.37;94136.41;5276331;27;9173;-58
2024/04/22 02:26:32;;;;;;;;;;;;;;;22.82;46.79;94135.91;5239965;27;9040;-58
2024/04/22 02:29:44;;;;;;;;;;;;;;;22.81;46.53;94131.69;5262740;27;9026;-58
2024/04/22 02:32:34;;;;;;;;;;;;;;;22.83;46.63;94133.94;5180090;27;9341;-58
2024/04/22 02:35:00;;;;;;;;;;;;;;;22.81;46.71;94122.72;5191171;27;7043;-58
2024/04/22 02:37:52;;;;;;;;;;;;;;;22.82;46.39;94133.16;5177743;27;9003;-58
2024/04/22 02:40:27;;;;;;;;;;;;;;;22.82;47.09;94135.91;5170806;27;7392;-58
2024/04/22 02:43:06;;;;;;;;;;;;;;;22.81;46.54;94120.72;5145733;27;7144;-58
2024/04/22 02:45:41;;;;;;;;;;;;;;;22.82;46.31;94124.94;5253718;27;9091;-62
2024/04/22 02:48:22;;;;;;;;;;;;;;;22.84;46.18;94127.94;5301492;26;7325;-62
2024/04/22 02:50:50;;;;;;;;;;;;;;;22.82;46.28;94119.47;5285938;26;9075;-62
2024/04/22 02:53:29;;;;;;;;;;;;;;;22.85;46.30;94120.47;5309508;26;9015;-62
2024/04/22 02:55:55;;;;;;;;;;;;;;;22.83;46.43;94112.75;5309586;26;7241;-62
2024/04/22 02:58:25;;;;;;;;;;;;;;;22.84;46.41;94116.97;5338087;26;9094;-62
2024/04/22 03:00:54;;;;;;;;;;;;;;;22.83;46.69;94123.72;5343779;26;9874;-62
2024/04/22 03:03:22;;;;;;;;;;;;;;;22.82;46.19;94122.19;5354482;26;9049;-62
2024/04/22 03:05:48;;;;;;;;;;;;;;;22.81;46.13;94117.97;5338285;26;7032;-62
2024/04/22 03:08:44;;;;;;;;;;;;;;;22.84;45.90;94116.22;5351296;26;9469;-62
2024/04/22 03:11:13;;;;;;;;;;;;;;;22.82;46.43;94119.47;5444284;26;7464;-62
2024/04/22 03:13:50;;;;;;;;;;;;;;;22.79;46.52;94117.72;5415634;26;9375;-62
2024/04/22 03:16:18;;;;;;;;;;;;;;;22.81;46.57;94114.47;5417624;26;7297;-62
2024/04/22 03:18:48;;;;;;;;;;;;;;;22.78;46.17;94107.25;5402276;26;9805;-62
2024/04/22 03:21:21;;;;;;;;;;;;;;;22.80;46.13;94102.75;5405728;26;9024;-62
2024/04/22 03:23:47;;;;;;;;;;;;;;;22.80;46.46;94108.25;5415351;26;7183;-62
2024/04/22 03:26:15;;;;;;;;;;;;;;;22.79;46.42;94103.28;5473348;26;9441;-62
2024/04/22 03:28:44;;;;;;;;;;;;;;;22.78;46.13;94099.78;5415810;26;9145;-62
2024/04/22 03:31:17;;;;;;;;;;;;;;;22.79;46.47;94101.28;5418276;26;9472;-62
2024/04/22 03:33:56;;;;;;;;;;;;;;;22.77;46.06;94092.78;5400775;26;9075;-62
2024/04/22 03:36:30;;;;;;;;;;;;;;;22.77;46.10;94101.00;5400787;26;9095;-62
2024/04/22 03:38:57;;;;;;;;;;;;;;;22.78;46.52;94102.50;5470123;26;9035;-62
2024/04/22 03:41:41;;;;;;;;;;;;;;;22.80;46.03;94108.25;5431620;26;9142;-62
2024/04/22 03:44:11;;;;;;;;;;;;;;;22.74;46.26;94091.06;5436462;26;9913;-62
2024/04/22 03:52:28;;;;;;;;;;;;;;;22.81;46.57;94101.53;5444123;26;9004;-62
2024/04/22 03:54:54;;;;;;;;;;;;;;;22.80;46.36;94108.25;5416361;26;7248;-59
2024/04/22 03:57:20;;;;;;;;;;;;;;;22.82;46.18;94099.50;5418675;26;9074;-59
2024/04/22 03:59:46;;;;;;;;;;;;;;;22.80;46.30;94096.53;5437515;26;9105;-58
2024/04/22 04:02:12;;;;;;;;;;;;;;;22.79;46.45;94093.06;5456503;26;9454;-59
2024/04/22 04:04:46;;;;;;;;;;;;;;;22.79;46.34;94098.53;5446746;26;9526;-59
2024/04/22 04:07:15;;;;;;;;;;;;;;;22.80;46.03;94096.53;5442370;26;9118;-59
2024/04/22 04:09:55;;;;;;;;;;;;;;;22.80;46.32;94100.03;5404412;26;9289;-58
2024/04/22 04:12:21;;;;;;;;;;;;;;;22.81;46.18;94089.81;5434274;26;9367;-58
2024/04/22 04:14:50;;;;;;;;;;;;;;;22.79;46.19;94093.06;5465571;26;9535;-58
2024/04/22 04:17:36;;;;;;;;;;;;;;;22.80;45.85;94086.31;5402791;26;9604;-58
2024/04/22 04:20:05;;;;;;;;;;;;;;;22.78;46.30;94086.06;5396396;26;9381;-58
2024/04/22 04:22:58;;;;;;;;;;;;;;;22.79;46.52;94090.31;5461098;26;9389;-59
2024/04/22 04:25:51;;;;;;;;;;;;;;;22.81;46.02;94085.06;5414525;26;9649;-58
2024/04/22 04:28:19;;;;;;;;;;;;;;;22.76;46.31;94094.03;5445765;26;9342;-59
2024/04/22 04:31:07;;;;;;;;;;;;;;;22.78;46.57;94099.78;5416229;26;7313;-59
2024/04/22 04:33:34;;;;;;;;;;;;;;;22.81;45.79;94098.03;5420497;26;9056;-59
2024/04/22 04:36:01;;;;;;;;;;;;;;;22.81;46.17;94098.78;5417936;26;9086;-59
2024/04/22 04:38:44;;;;;;;;;;;;;;;22.85;46.14;94099.28;5446465;26;9477;-58
2024/04/22 04:41:19;;;;;;;;;;;;;;;22.87;46.02;94094.03;5412485;26;7559;-59
2024/04/22 04:43:53;;;;;;;;;;;;;;;22.86;46.39;94095.28;5418036;26;8999;-58
2024/04/22 04:46:55;;;;;;;;;;;;;;;22.87;46.48;94096.03;5407317;26;9341;-59
2024/04/22 04:49:38;;;;;;;;;;;;;;;22.87;46.23;94105.00;5311650;26;9071;-59
2024/04/22 04:52:10;;;;;;;;;;;;;;;22.88;46.30;94105.75;5310936;26;8982;-61
2024/04/22 04:54:38;;;;;;;;;;;;;;;22.92;46.44;94101.50;5311508;26;8694;-61
2024/04/22 04:57:05;;;;;;;;;;;;;;;22.92;46.46;94103.50;5319325;26;9133;-61
2024/04/22 04:59:31;;;;;;;;;;;;;;;22.92;46.24;94101.50;5368098;26;9189;-61
2024/04/22 05:01:57;;;;;;;;;;;;;;;22.94;46.54;94101.78;5347416;26;9162;-61
2024/04/22 05:04:24;;;;;;;;;;;;;;;22.92;46.49;94106.97;5289642;27;9111;-67
2024/04/22 05:07:04;;;;;;;;;;;;;;;22.91;45.88;94102.75;5354318;26;9649;-67
2024/04/22 05:09:54;;;;;;;;;;;;;;;22.92;46.16;94101.50;5333465;26;10031;-66
2024/04/22 05:12:39;;;;;;;;;;;;;;;22.91;46.55;94111.00;5309392;26;8343;-68
2024/04/22 05:15:17;;;;;;;;;;;;;;;22.91;46.67;94102.75;5353007;26;9044;-67
2024/04/22 05:18:01;;;;;;;;;;;;;;;22.93;46.63;94105.00;5325539;26;9080;-68
2024/04/22 05:20:39;;;;;;;;;;;;;;;22.89;46.50;94110.75;5310468;26;9755;-65
2024/04/22 05:23:55;;;;;;;;;;;;;;;22.90;46.59;94101.25;5339604;26;9032;-64
2024/04/22 05:26:23;;;;;;;;;;;;;;;22.91;46.47;94108.25;5415350;26;9088;-64
2024/04/22 05:29:08;;;;;;;;;;;;;;;22.93;46.71;94105.00;5445743;26;7219;-64
2024/04/22 05:31:34;;;;;;;;;;;;;;;22.96;46.97;94112.22;5441342;26;9024;-64
2024/04/22 05:37:00;;;;;;;;;;;;;;;22.96;46.54;94104.75;5448991;26;9019;-64
2024/04/22 05:39:57;;;;;;;;;;;;;;;22.99;46.64;94106.47;5433684;26;9119;-64
2024/04/22 05:42:25;;;;;;;;;;;;;;;23.02;46.53;94118.47;5416069;26;9724;-65
2024/04/22 05:45:07;;;;;;;;;;;;;;;23.03;44.64;94123.44;5410859;26;8562;-64
2024/04/22 05:47:42;;;;;;;;;;;;;;;22.93;45.76;94113.97;5451877;26;9325;-65
2024/04/22 05:50:19;;;;;;;;;;;;;;;22.89;45.28;94116.22;5412630;26;7027;-64
2024/04/22 05:52:55;;;;;;;;;;;;;;;22.87;46.27;94118.72;5408007;26;7242;-69
2024/04/22 05:55:22;;;;;;;;;;;;;;;22.92;46.69;94117.94;5415550;26;9524;-66
2024/04/22 05:57:48;;;;;;;;;;;;;;;22.99;47.86;94120.19;5416819;26;9553;-66
2024/04/22 06:00:14;;;;;;;;;;;;;;;23.11;52.89;94129.94;5410643;26;9447;-66
2024/04/22 06:02:43;;;;;;;;;;;;;;;23.39;54.79;94126.41;5421499;26;9200;-66
2024/04/22 06:05:10;;;;;;;;;;;;;;;23.71;53.96;94133.06;5446868;26;9480;-67
2024/04/22 06:07:50;;;;;;;;;;;;;;;23.93;55.62;94125.50;5431545;26;9606;-67
2024/04/22 06:10:17;;;;;;;;;;;;;;;24.11;56.29;94129.69;5461295;26;9466;-67
2024/04/22 06:12:55;;;;;;;;;;;;;;;24.27;55.17;94126.09;5408459;26;9577;-67
2024/04/22 06:15:35;;;;;;;;;;;;;;;24.35;49.46;94123.56;5416146;26;9377;-66
2024/04/22 06:18:03;;;;;;;;;;;;;;;24.30;48.18;94114.09;5436559;26;10157;-64
2024/04/22 06:20:35;;;;;;;;;;;;;;;24.34;47.73;94111.81;5398841;26;9347;-65
2024/04/22 06:23:03;;;;;;;;;;;;;;;24.33;46.88;94113.09;5420372;26;9075;-60
2024/04/22 06:25:29;;;;;;;;;;;;;;;24.24;47.33;94102.38;5418730;26;9876;-63
2024/04/22 06:27:56;;;;;;;;;;;;;;;23.91;46.33;94110.75;5415942;26;7038;-63
2024/04/22 06:30:42;;;;;;;;;;;;;;;23.64;47.31;94109.63;5415306;26;8992;-63
2024/04/22 06:33:13;;;;;;;;;;;;;;;23.54;48.85;94100.16;5445530;26;9058;-64
2024/04/22 06:35:49;;;;;;;;;;;;;;;23.70;55.91;94123.34;5416569;26;7251;-63
2024/04/22 06:38:17;;;;;;;;;;;;;;;23.96;55.04;94119.00;5430551;26;8980;-64
2024/04/22 06:40:57;;;;;;;;;;;;;;;24.17;54.09;94124.91;5431479;26;9461;-63
2024/04/22 06:43:26;;;;;;;;;;;;;;;24.31;53.77;94112.84;5422527;26;9045;-68
2024/04/22 06:45:56;;;;;;;;;;;;;;;24.40;53.09;94109.78;5425078;26;9135;-64
2024/04/22 06:48:31;;;;;;;;;;;;;;;24.46;52.04;94116.00;5415075;26;9085;-66
2024/04/22 06:50:59;;;;;;;;;;;;;;;24.50;51.41;94113.72;5445398;26;7321;-61
2024/04/22 06:53:38;;;;;;;;;;;;;;;24.53;47.79;94115.44;5419572;26;7086;-62
2024/04/22 06:56:05;;;;;;;;;;;;;;;24.51;46.38;94117.22;5453705;26;7639;-62
2024/04/22 06:58:31;;;;;;;;;;;;;;;24.34;46.35;94100.81;5458300;26;9529;-60
2024/04/22 07:00:57;;;;;;;;;;;;;;;23.98;45.83;94104.75;5417121;26;9397;-60
2024/04/22 07:03:31;;;;;;;;;;;;;;;23.62;45.05;94103.16;5418340;26;9056;-60
2024/04/22 07:05:57;;;;;;;;;;;;;;;23.34;45.20;94107.97;5419071;26;7015;-61
2024/04/22 07:08:24;;;;;;;;;;;;;;;23.14;45.03;94106.25;5455917;26;7266;-60
2024/04/22 07:10:51;;;;;;;;;;;;;;;22.96;45.70;94107.50;5415998;26;9514;-60
2024/04/22 07:13:18;;;;;;;;;;;;;;;22.91;46.15;94102.00;5444729;26;8657;-60
2024/04/22 07:15:44;;;;;;;;;;;;;;;22.93;46.32;94103.00;5416074;26;9087;-59
2024/04/22 07:18:12;;;;;;;;;;;;;;;22.92;46.88;94101.50;5444011;26;9432;-63
2024/04/22 07:20:54;;;;;;;;;;;;;;;22.93;46.65;94103.00;5467797;26;9564;-62
2024/04/22 07:23:29;;;;;;;;;;;;;;;22.96;46.36;94107.50;5425151;26;9550;-62
2024/04/22 07:26:04;;;;;;;;;;;;;;;22.91;45.62;94111.00;5446429;26;9828;-61
2024/04/22 07:28:30;;;;;;;;;;;;;;;22.90;45.77;94111.50;5435718;26;9404;-59
2024/04/22 07:30:59;;;;;;;;;;;;;;;22.85;45.55;94110.25;5418633;26;8938;-59
2024/04/22 07:33:27;;;;;;;;;;;;;;;22.79;45.53;94106.00;5419092;26;9089;-59
2024/04/22 07:36:51;;;;;;;;;;;;;;;22.80;45.71;94115.72;5411348;26;8987;-60
2024/04/22 07:39:41;;;;;;;;;;;;;;;22.83;45.59;94114.72;5431749;26;9451;-59
2024/04/22 07:42:48;;;;;;;;;;;;;;;22.81;46.03;94109.00;5423368;26;9229;-59
2024/04/22 07:45:31;;;;;;;;;;;;;;;22.82;46.32;94107.75;5358988;26;9223;-59
2024/04/22 07:47:57;;;;;;;;;;;;;;;22.82;46.60;94111.22;5332642;26;8987;-60
2024/04/22 07:50:24;;;;;;;;;;;;;;;22.82;46.31;94113.97;5347521;26;9801;-60
2024/04/22 07:53:01;;;;;;;;;;;;;;;22.80;46.63;94108.25;5376155;26;9833;-60
2024/04/22 07:55:34;;;;;;;;;;;;;;;22.82;46.13;94113.97;5341202;26;7128;-60
2024/04/22 07:58:00;;;;;;;;;;;;;;;22.84;46.49;94113.47;5346253;26;9270;-60
2024/04/22 08:00:27;;;;;;;;;;;;;;;22.84;46.35;94116.97;5346500;26;7032;-60
2024/04/22 08:03:08;;;;;;;;;;;;;;;22.84;45.83;94119.72;5334823;26;8981;-59
2024/04/22 08:05:49;;;;;;;;;;;;;;;22.77;46.44;94122.22;5354701;26;9148;-59
2024/04/22 08:08:18;;;;;;;;;;;;;;;22.73;46.26;94116.25;5353143;26;9276;-59
2024/04/22 08:10:59;;;;;;;;;;;;;;;22.71;46.60;94124.94;5361126;26;9279;-59
2024/04/22 08:13:59;;;;;;;;;;;;;;;22.75;46.67;94122.69;5343698;26;7177;-59
2024/04/22 08:16:45;;;;;;;;;;;;;;;22.76;46.78;94126.19;5258338;27;9323;-59
2024/04/22 08:19:14;;;;;;;;;;;;;;;22.76;46.56;94126.94;5277671;26;9111;-59
2024/04/22 08:21:51;;;;;;;;;;;;;;;22.79;46.88;94122.47;5340577;26;9382;-59
2024/04/22 08:24:44;;;;;;;;;;;;;;;22.82;46.48;94129.69;5308023;26;8736;-59
2024/04/22 08:27:13;;;;;;;;;;;;;;;22.78;46.45;94135.41;5339976;26;7232;-59
2024/04/22 08:29:52;;;;;;;;;;;;;;;22.80;46.80;94137.66;5340040;26;8976;-59
2024/04/22 08:32:18;;;;;;;;;;;;;;;22.80;46.95;94138.41;5308463;26;9384;-59
2024/04/22 08:34:57;;;;;;;;;;;;;;;22.83;46.91;94136.66;5314827;26;8548;-59
2024/04/22 08:37:33;;;;;;;;;;;;;;;22.77;46.61;94128.44;5305952;27;9074;-59
2024/04/22 08:40:10;;;;;;;;;;;;;;;22.81;47.08;94142.66;5305570;26;8613;-58
2024/04/22 08:42:39;;;;;;;;;;;;;;;22.80;46.87;94135.66;5340647;26;7115;-58
2024/04/22 08:45:27;;;;;;;;;;;;;;;22.83;46.71;94134.69;5340381;26;7302;-59
2024/04/22 08:48:08;;;;;;;;;;;;;;;22.84;46.94;94141.66;5305338;27;7235;-59
2024/04/22 08:50:54;;;;;;;;;;;;;;;22.82;46.87;94143.38;5312029;26;7297;-58
2024/04/22 08:53:32;;;;;;;;;;;;;;;22.78;47.24;94138.16;5416590;26;9512;-58
2024/04/22 08:55:59;;;;;;;;;;;;;;;22.78;47.18;94151.88;5382613;26;9472;-58
2024/04/22 08:58:25;;;;;;;;;;;;;;;22.81;47.62;94144.66;5443337;26;9435;-59
2024/04/22 09:00:51;;;;;;;;;;;;;;;22.79;47.44;94136.16;5416975;26;9148;-59
2024/04/22 09:03:30;;;;;;;;;;;;;;;22.76;46.95;94143.41;5414272;26;9680;-59
2024/04/22 09:06:09;;;;;;;;;;;;;;;22.81;46.86;94147.38;5414199;26;9740;-59
2024/04/22 09:08:43;;;;;;;;;;;;;;;22.82;46.93;94140.63;5446994;26;9007;-58
2024/04/22 09:11:29;;;;;;;;;;;;;;;22.86;47.39;94147.38;5428245;26;9573;-58
2024/04/22 09:14:09;;;;;;;;;;;;;;;22.78;46.99;94131.91;5417214;26;9869;-59
2024/04/22 09:16:38;;;;;;;;;;;;;;;22.86;46.71;94146.66;5397453;26;9474;-58
2024/04/22 09:19:36;;;;;;;;;;;;;;;22.88;47.14;94152.38;5441225;26;9465;-58
2024/04/22 09:22:17;;;;;;;;;;;;;;;22.78;47.25;94146.38;5271290;27;9076;-58
2024/04/22 09:24:44;;;;;;;;;;;;;;;22.81;47.27;94153.63;5246532;27;9465;-58
2024/04/22 09:27:11;;;;;;;;;;;;;;;22.84;47.17;94149.13;5268033;27;8723;-59
2024/04/22 09:29:43;;;;;;;;;;;;;;;22.78;47.10;94146.38;5278719;27;9577;-58
2024/04/22 09:32:31;;;;;;;;;;;;;;;22.87;47.11;94151.63;5276320;27;7255;-59
2024/04/22 09:35:23;;;;;;;;;;;;;;;22.83;47.26;94142.91;5255516;27;9113;-58
2024/04/22 09:38:01;;;;;;;;;;;;;;;22.82;47.07;94146.13;5262927;27;7550;-59
2024/04/22 09:40:48;;;;;;;;;;;;;;;22.79;47.26;94147.91;5276328;27;8974;-59
2024/04/22 09:43:31;;;;;;;;;;;;;;;22.82;47.25;94146.88;5270937;27;9519;-59
2024/04/22 09:46:08;;;;;;;;;;;;;;;22.81;47.13;94139.91;5285428;27;9180;-60
2024/04/22 09:48:59;;;;;;;;;;;;;;;22.83;47.53;94142.16;5268737;27;9043;-60
2024/04/22 09:51:49;;;;;;;;;;;;;;;22.80;47.47;94143.88;5273999;27;9068;-60
2024/04/22 09:54:45;;;;;;;;;;;;;;;22.82;47.70;94135.91;5251489;27;7205;-60
2024/04/22 09:57:17;;;;;;;;;;;;;;;22.80;47.41;94138.41;5199021;27;8760;-60
2024/04/22 09:59:44;;;;;;;;;;;;;;;22.74;47.50;94134.91;5269117;27;9015;-60
2024/04/22 10:02:15;;;;;;;;;;;;;;;22.75;47.48;94133.66;5292373;26;7135;-60
2024/04/22 10:05:01;;;;;;;;;;;;;;;22.80;47.61;94140.41;5310712;26;9508;-60
2024/04/22 10:07:29;;;;;;;;;;;;;;;22.83;47.23;94136.66;5282039;27;9115;-61
2024/04/22 10:09:57;;;;;;;;;;;;;;;22.86;47.23;94128.19;5296613;27;9006;-61
2024/04/22 10:12:33;;;;;;;;;;;;;;;22.89;46.98;94134.66;5253707;27;9651;-60
2024/04/22 10:15:30;;;;;;;;;;;;;;;22.92;46.95;94133.69;5291204;27;9199;-60
2024/04/22 10:18:41;;;;;;;;;;;;;;;22.93;47.39;94130.44;5283120;26;7020;-60
2024/04/22 10:21:26;;;;;;;;;;;;;;;22.90;47.14;94128.69;5233536;27;9596;-60
2024/04/22 10:24:02;;;;;;;;;;;;;;;22.91;46.66;94123.94;5209034;27;9616;-60
2024/04/22 10:26:43;;;;;;;;;;;;;;;22.82;46.60;94119.47;5203053;27;9577;-61
2024/04/22 10:29:09;;;;;;;;;;;;;;;22.87;47.09;94131.69;5203670;27;9451;-60
2024/04/22 10:31:37;;;;;;;;;;;;;;;22.89;46.56;94134.66;5225119;27;9179;-60
2024/04/22 10:34:06;;;;;;;;;;;;;;;22.87;46.87;94140.66;5279404;26;9393;-60
2024/04/22 10:36:50;;;;;;;;;;;;;;;22.90;46.80;94136.91;5310061;26;9119;-60
2024/04/22 10:39:26;;;;;;;;;;;;;;;22.93;46.60;94135.91;5309496;26;9038;-60
2024/04/22 10:42:20;;;;;;;;;;;;;;;22.99;46.27;94139.41;5341182;26;9304;-60
2024/04/22 10:45:19;;;;;;;;;;;;;;;23.06;46.37;94141.66;5362015;26;9531;-60
2024/04/22 10:47:55;;;;;;;;;;;;;;;23.11;46.70;94132.66;5230492;27;7030;-60
2024/04/22 10:50:31;;;;;;;;;;;;;;;23.19;46.73;94136.41;5219842;27;7040;-60
2024/04/22 10:52:59;;;;;;;;;;;;;;;23.30;45.95;94140.38;5225480;27;9412;-60
2024/04/22 10:55:28;;;;;;;;;;;;;;;23.34;46.47;94136.16;5229104;27;9113;-60
2024/04/22 10:57:56;;;;;;;;;;;;;;;23.44;45.89;94137.38;5262655;27;9503;-60
2024/04/22 11:00:25;;;;;;;;;;;;;;;23.52;45.54;94135.63;5323428;26;7330;-61
2024/04/22 11:03:11;;;;;;;;;;;;;;;23.68;45.30;94142.31;5264157;27;9036;-61
2024/04/22 11:05:37;;;;;;;;;;;;;;;23.76;45.62;94135.78;5243786;27;9014;-61
2024/04/22 11:08:18;;;;;;;;;;;;;;;23.84;45.17;94139.50;5296522;27;9412;-61
2024/04/22 11:10:54;;;;;;;;;;;;;;;23.91;45.15;94130.75;5275399;27;9079;-61
2024/04/22 11:13:32;;;;;;;;;;;;;;;23.99;45.27;94141.94;5275482;27;9079;-61
2024/04/22 11:16:06;;;;;;;;;;;;;;;24.03;45.21;94144.44;5274591;27;9071;-61
2024/04/22 11:18:32;;;;;;;;;;;;;;;24.07;45.31;94142.94;5298619;26;9238;-61
2024/04/22 11:21:18;;;;;;;;;;;;;;;24.10;45.17;94141.91;5326412;26;9085;-61
2024/04/22 11:23:50;;;;;;;;;;;;;;;24.08;45.27;94133.44;5319007;26;9483;-61
2024/04/22 11:26:34;;;;;;;;;;;;;;;24.09;45.25;94137.69;5414191;26;9234;-60
2024/04/22 11:29:30;;;;;;;;;;;;;;;24.15;45.65;94137.66;5410857;26;9382;-61
2024/04/22 11:31:58;;;;;;;;;;;;;;;24.17;44.55;94143.38;5343826;26;9035;-61
2024/04/22 11:34:25;;;;;;;;;;;;;;;24.13;42.55;94132.66;5289440;26;8969;-61
2024/04/22 11:37:01;;;;;;;;;;;;;;;24.07;43.02;94129.22;5307689;26;9601;-61
2024/04/22 11:39:38;;;;;;;;;;;;;;;24.13;43.85;94143.66;5288013;26;7368;-61
2024/04/22 11:42:07;;;;;;;;;;;;;;;24.13;43.73;94146.41;5351238;26;9045;-61
2024/04/22 11:44:34;;;;;;;;;;;;;;;24.13;43.36;94140.16;5314434;26;7233;-61
2024/04/22 11:47:00;;;;;;;;;;;;;;;24.12;43.68;94138.69;5269364;26;9433;-61
2024/04/22 11:49:35;;;;;;;;;;;;;;;24.12;43.52;94141.44;5335883;26;9302;-61
2024/04/22 11:52:03;;;;;;;;;;;;;;;24.13;43.68;94138.16;5297724;27;9011;-61
2024/04/22 11:54:29;;;;;;;;;;;;;;;24.13;43.35;94140.91;5305434;26;8194;-61
2024/04/22 11:56:55;;;;;;;;;;;;;;;24.14;43.51;94141.66;5301087;26;9698;-61
2024/04/22 11:59:21;;;;;;;;;;;;;;;24.13;43.36;94142.91;5275766;26;9470;-61
2024/04/22 12:01:47;;;;;;;;;;;;;;;24.13;43.61;94143.66;5344916;26;9513;-61
2024/04/22 12:04:30;;;;;;;;;;;;;;;24.14;43.80;94144.41;5308233;26;9255;-60
2024/04/22 12:06:57;;;;;;;;;;;;;;;24.13;43.69;94140.16;5290702;26;9068;-60
2024/04/22 12:09:23;;;;;;;;;;;;;;;24.13;43.63;94143.66;5448648;26;9089;-60
2024/04/22 12:11:51;;;;;;;;;;;;;;;24.13;43.76;94148.41;5411855;26;9697;-60
2024/04/22 12:14:18;;;;;;;;;;;;;;;24.12;43.66;94152.41;5462846;26;8991;-60
2024/04/22 12:16:48;;;;;;;;;;;;;;;24.12;43.79;94149.66;5408634;26;9803;-60
2024/04/22 12:19:14;;;;;;;;;;;;;;;24.12;43.79;94144.91;5442810;26;9554;-60
2024/04/22 12:21:44;;;;;;;;;;;;;;;24.11;44.03;94148.16;5408533;26;9356;-60
2024/04/22 12:24:10;;;;;;;;;;;;;;;24.11;44.03;94150.91;5436990;26;9508;-60
2024/04/22 12:26:36;;;;;;;;;;;;;;;24.10;44.12;94146.69;5467929;26;9010;-60
2024/04/22 12:29:04;;;;;;;;;;;;;;;24.11;44.06;94148.91;5408231;26;9577;-60
2024/04/22 12:31:30;;;;;;;;;;;;;;;24.11;44.04;94146.16;5413035;26;8620;-60
2024/04/22 12:33:56;;;;;;;;;;;;;;;24.09;44.21;94143.19;5464630;26;9438;-65
2024/04/22 12:36:23;;;;;;;;;;;;;;;24.09;44.32;94148.69;5428667;26;7303;-65
2024/04/22 12:38:49;;;;;;;;;;;;;;;24.11;44.12;94146.16;5469683;26;9129;-62
2024/04/22 12:41:16;;;;;;;;;;;;;;;24.10;44.08;94143.94;5412097;26;9621;-61
2024/04/22 12:43:46;;;;;;;;;;;;;;;24.09;44.00;94142.44;5467555;26;9034;-62
2024/04/22 12:52:17;;;;;;;;;;;;;;;23.96;44.39;94134.72;5369105;26;9796;-63
2024/04/22 12:54:44;;;;;;;;;;;;;;;23.97;43.98;94141.69;5311345;26;9614;-63
2024/04/22 12:57:10;;;;;;;;;;;;;;;23.96;44.29;94140.22;5365753;26;9508;-63
2024/04/22 12:59:37;;;;;;;;;;;;;;;23.90;44.13;94136.75;5330782;26;9453;-64
2024/04/22 13:02:14;;;;;;;;;;;;;;;23.85;44.38;94132.03;5352961;26;9629;-64
2024/04/22 13:04:55;;;;;;;;;;;;;;;23.86;44.30;94144.47;5345511;26;9569;-64
2024/04/22 13:07:33;;;;;;;;;;;;;;;23.78;44.29;94136.03;5327125;26;9595;-64
2024/04/22 13:10:13;;;;;;;;;;;;;;;23.73;44.68;94136.03;5332154;26;9368;-64
2024/04/22 13:12:51;;;;;;;;;;;;;;;23.72;44.98;94138.06;5337747;26;9394;-64
2024/04/22 13:15:27;;;;;;;;;;;;;;;23.66;44.87;94140.06;5346036;26;9026;-62
2024/04/22 13:18:06;;;;;;;;;;;;;;;23.62;44.97;94134.09;5359125;26;9044;-62
2024/04/22 13:21:06;;;;;;;;;;;;;;;23.58;45.06;94133.59;5324771;26;9154;-62
2024/04/22 13:23:34;;;;;;;;;;;;;;;23.47;45.04;94116.44;5313555;26;8673;-62
2024/04/22 13:26:07;;;;;;;;;;;;;;;23.48;45.08;94126.16;5383363;26;9022;-62
2024/04/22 13:28:43;;;;;;;;;;;;;;;23.41;45.40;94116.44;5447076;26;9053;-62
2024/04/22 13:31:12;;;;;;;;;;;;;;;23.38;45.51;94122.19;5417380;26;9314;-62
2024/04/22 13:33:38;;;;;;;;;;;;;;;23.29;45.75;94120.44;5452452;26;7481;-62
2024/04/22 13:36:08;;;;;;;;;;;;;;;23.31;46.14;94122.66;5385614;26;8994;-61
2024/04/22 13:38:36;;;;;;;;;;;;;;;23.27;46.27;94120.91;5467825;26;8624;-60
2024/04/22 13:41:10;;;;;;;;;;;;;;;23.24;45.90;94119.19;5435676;26;7307;-62
2024/04/22 13:43:36;;;;;;;;;;;;;;;23.20;46.41;94115.97;5400661;26;7032;-61
2024/04/22 13:46:29;;;;;;;;;;;;;;;23.19;45.97;94119.94;5443088;26;9157;-62
2024/04/22 13:48:57;;;;;;;;;;;;;;;23.13;46.23;94116.47;5410683;26;9052;-62
2024/04/22 13:51:23;;;;;;;;;;;;;;;23.08;47.04;94113.72;5414699;26;9071;-61
2024/04/22 13:53:52;;;;;;;;;;;;;;;23.09;46.40;94113.22;5416697;26;9084;-61
2024/04/22 13:56:26;;;;;;;;;;;;;;;23.06;46.48;94111.47;5417355;26;9427;-62